Archival Weather

Granbury Rgnl

Granbury, Texas (KGDJ)

Report from: Monday, January 29, 2024 6:55 PM UTC
Current time: Tuesday, June 18, 2024 1:27 PM UTC

Current weather – Weather history – Daily summaries
Weather forecast

Temperature20.2°C (68.4°F)
Dew point3.1°C (37.6°F)
Winds 10 kts (5.1 m/s, 11.5 mph) West-Northwest (290°)
Visibility10 mi. (16.1 km)
Clouds Sky clear
Altimeter30.28 in.Hg (1025 mB)
Relative humidity32 %
Density altitude317 ft. (97 m)
Remarks Fully automated report
Automated weather observing station with precipitation discriminator
Flight conditions Visual Meteorological Conditions
Raw dataKGDJ 291855Z AUTO 29010KT 10SM CLR 20/03 A3028 RMK AO2 T02020031
An error has occurred. This application may no longer respond until reloaded. Reload 🗙